sensor_id;sensor_type;location;lat;lon;timestamp;P1;durP1;ratioP1;P2;durP2;ratioP2
28174;SDS011;59417;44.788;10.334;2022-07-05T00:00:38;5.32;;;2.10;;
28174;SDS011;59417;44.788;10.334;2022-07-05T00:03:03;3.75;;;1.63;;
28174;SDS011;59417;44.788;10.334;2022-07-05T00:05:29;7.72;;;2.17;;
28174;SDS011;59417;44.788;10.334;2022-07-05T00:07:55;5.25;;;2.35;;
28174;SDS011;59417;44.788;10.334;2022-07-05T00:10:21;7.43;;;2.35;;
28174;SDS011;59417;44.788;10.334;2022-07-05T00:12:46;3.92;;;1.80;;
28174;SDS011;59417;44.788;10.334;2022-07-05T00:15:12;9.23;;;2.40;;
28174;SDS011;59417;44.788;10.334;2022-07-05T00:17:38;4.70;;;2.60;;
28174;SDS011;59417;44.788;10.334;2022-07-05T00:20:03;7.13;;;2.78;;
28174;SDS011;59417;44.788;10.334;2022-07-05T00:22:29;5.07;;;2.53;;
28174;SDS011;59417;44.788;10.334;2022-07-05T00:24:55;5.10;;;3.08;;
28174;SDS011;59417;44.788;10.334;2022-07-05T00:27:21;8.52;;;2.90;;
28174;SDS011;59417;44.788;10.334;2022-07-05T00:29:46;6.13;;;3.08;;
28174;SDS011;59417;44.788;10.334;2022-07-05T00:32:12;8.70;;;2.80;;
28174;SDS011;59417;44.788;10.334;2022-07-05T00:34:37;10.23;;;3.38;;
28174;SDS011;59417;44.788;10.334;2022-07-05T00:37:03;7.07;;;3.30;;
28174;SDS011;59417;44.788;10.334;2022-07-05T00:39:29;7.38;;;3.53;;
28174;SDS011;59417;44.788;10.334;2022-07-05T00:41:54;9.23;;;3.08;;
28174;SDS011;59417;44.788;10.334;2022-07-05T00:44:33;8.52;;;4.00;;
28174;SDS011;59417;44.788;10.334;2022-07-05T00:47:01;11.57;;;4.07;;
28174;SDS011;59417;44.788;10.334;2022-07-05T00:49:28;8.15;;;5.18;;
28174;SDS011;59417;44.788;10.334;2022-07-05T00:51:54;13.25;;;6.03;;
28174;SDS011;59417;44.788;10.334;2022-07-05T00:54:20;10.70;;;5.93;;
28174;SDS011;59417;44.788;10.334;2022-07-05T00:56:46;10.30;;;6.80;;
28174;SDS011;59417;44.788;10.334;2022-07-05T00:59:12;13.75;;;6.90;;
28174;SDS011;59417;44.788;10.334;2022-07-05T01:01:38;14.27;;;8.32;;
28174;SDS011;59417;44.788;10.334;2022-07-05T01:04:03;16.08;;;8.35;;
28174;SDS011;59417;44.788;10.334;2022-07-05T01:06:29;14.70;;;8.07;;
28174;SDS011;59417;44.788;10.334;2022-07-05T01:08:55;18.48;;;9.05;;
28174;SDS011;59417;44.788;10.334;2022-07-05T01:11:21;15.05;;;8.43;;
28174;SDS011;59417;44.788;10.334;2022-07-05T01:13:46;16.00;;;8.27;;
28174;SDS011;59417;44.788;10.334;2022-07-05T01:16:12;13.05;;;9.05;;
28174;SDS011;59417;44.788;10.334;2022-07-05T01:18:38;12.35;;;8.23;;
28174;SDS011;59417;44.788;10.334;2022-07-05T01:21:04;14.18;;;8.52;;
28174;SDS011;59417;44.788;10.334;2022-07-05T01:23:30;18.05;;;8.55;;
28174;SDS011;59417;44.788;10.334;2022-07-05T01:25:58;17.60;;;8.05;;
28174;SDS011;59417;44.788;10.334;2022-07-05T01:28:26;15.65;;;8.15;;
28174;SDS011;59417;44.788;10.334;2022-07-05T01:30:52;14.82;;;7.90;;
28174;SDS011;59417;44.788;10.334;2022-07-05T01:33:18;12.25;;;8.40;;
28174;SDS011;59417;44.788;10.334;2022-07-05T01:35:44;11.48;;;7.57;;
28174;SDS011;59417;44.788;10.334;2022-07-05T01:38:11;14.48;;;8.40;;
28174;SDS011;59417;44.788;10.334;2022-07-05T01:40:37;14.18;;;7.55;;
28174;SDS011;59417;44.788;10.334;2022-07-05T01:43:03;14.60;;;8.32;;
28174;SDS011;59417;44.788;10.334;2022-07-05T01:45:29;11.57;;;7.80;;
28174;SDS011;59417;44.788;10.334;2022-07-05T01:48:06;11.50;;;7.43;;
28174;SDS011;59417;44.788;10.334;2022-07-05T01:50:41;10.65;;;7.03;;
28174;SDS011;59417;44.788;10.334;2022-07-05T01:53:16;17.23;;;8.38;;
28174;SDS011;59417;44.788;10.334;2022-07-05T01:55:52;10.68;;;7.65;;
28174;SDS011;59417;44.788;10.334;2022-07-05T01:58:19;11.52;;;7.13;;
28174;SDS011;59417;44.788;10.334;2022-07-05T02:00:49;11.15;;;7.05;;
28174;SDS011;59417;44.788;10.334;2022-07-05T02:03:17;11.70;;;7.22;;
28174;SDS011;59417;44.788;10.334;2022-07-05T02:05:42;10.77;;;7.47;;
28174;SDS011;59417;44.788;10.334;2022-07-05T02:08:14;10.93;;;7.15;;
28174;SDS011;59417;44.788;10.334;2022-07-05T02:10:41;9.38;;;7.45;;
28174;SDS011;59417;44.788;10.334;2022-07-05T02:13:08;8.73;;;6.28;;
28174;SDS011;59417;44.788;10.334;2022-07-05T02:15:35;9.60;;;6.82;;
28174;SDS011;59417;44.788;10.334;2022-07-05T02:18:02;15.60;;;6.90;;
28174;SDS011;59417;44.788;10.334;2022-07-05T02:20:30;10.85;;;6.95;;
28174;SDS011;59417;44.788;10.334;2022-07-05T02:22:57;8.85;;;6.43;;
28174;SDS011;59417;44.788;10.334;2022-07-05T02:25:23;11.23;;;7.07;;
28174;SDS011;59417;44.788;10.334;2022-07-05T02:27:50;6.60;;;5.93;;
28174;SDS011;59417;44.788;10.334;2022-07-05T02:30:18;9.38;;;6.40;;
28174;SDS011;59417;44.788;10.334;2022-07-05T02:32:44;7.90;;;5.97;;
28174;SDS011;59417;44.788;10.334;2022-07-05T02:35:10;8.57;;;5.60;;
28174;SDS011;59417;44.788;10.334;2022-07-05T02:37:40;10.27;;;5.85;;
28174;SDS011;59417;44.788;10.334;2022-07-05T02:40:07;6.50;;;5.25;;
28174;SDS011;59417;44.788;10.334;2022-07-05T02:42:42;7.97;;;5.03;;
28174;SDS011;59417;44.788;10.334;2022-07-05T02:45:10;13.38;;;4.95;;
28174;SDS011;59417;44.788;10.334;2022-07-05T02:47:37;10.82;;;4.97;;
28174;SDS011;59417;44.788;10.334;2022-07-05T02:50:22;11.38;;;4.57;;
28174;SDS011;59417;44.788;10.334;2022-07-05T02:52:50;7.72;;;5.32;;
28174;SDS011;59417;44.788;10.334;2022-07-05T02:55:16;6.20;;;5.07;;
28174;SDS011;59417;44.788;10.334;2022-07-05T02:57:43;12.02;;;5.63;;
28174;SDS011;59417;44.788;10.334;2022-07-05T03:00:11;10.80;;;5.60;;
28174;SDS011;59417;44.788;10.334;2022-07-05T03:02:42;8.90;;;5.70;;
28174;SDS011;59417;44.788;10.334;2022-07-05T03:05:09;9.63;;;5.95;;
28174;SDS011;59417;44.788;10.334;2022-07-05T03:07:36;9.18;;;5.57;;
28174;SDS011;59417;44.788;10.334;2022-07-05T03:10:02;9.38;;;5.50;;
28174;SDS011;59417;44.788;10.334;2022-07-05T03:12:29;9.25;;;5.15;;
28174;SDS011;59417;44.788;10.334;2022-07-05T03:14:55;8.25;;;5.05;;
28174;SDS011;59417;44.788;10.334;2022-07-05T03:17:22;9.18;;;5.43;;
28174;SDS011;59417;44.788;10.334;2022-07-05T03:19:48;6.25;;;4.70;;
28174;SDS011;59417;44.788;10.334;2022-07-05T03:22:16;7.78;;;4.75;;
28174;SDS011;59417;44.788;10.334;2022-07-05T03:24:42;6.32;;;4.38;;
28174;SDS011;59417;44.788;10.334;2022-07-05T03:27:09;5.68;;;4.57;;
28174;SDS011;59417;44.788;10.334;2022-07-05T03:29:39;7.18;;;4.80;;
28174;SDS011;59417;44.788;10.334;2022-07-05T03:32:05;9.50;;;5.30;;
28174;SDS011;59417;44.788;10.334;2022-07-05T03:34:31;6.28;;;4.38;;
28174;SDS011;59417;44.788;10.334;2022-07-05T03:37:00;4.80;;;4.03;;
28174;SDS011;59417;44.788;10.334;2022-07-05T03:39:26;5.78;;;3.88;;
28174;SDS011;59417;44.788;10.334;2022-07-05T03:41:51;9.40;;;4.70;;
28174;SDS011;59417;44.788;10.334;2022-07-05T03:44:21;6.95;;;4.28;;
28174;SDS011;59417;44.788;10.334;2022-07-05T03:46:46;8.80;;;4.38;;
28174;SDS011;59417;44.788;10.334;2022-07-05T03:49:13;7.32;;;5.00;;
28174;SDS011;59417;44.788;10.334;2022-07-05T03:51:39;10.95;;;4.80;;
28174;SDS011;59417;44.788;10.334;2022-07-05T03:54:05;8.63;;;4.85;;
28174;SDS011;59417;44.788;10.334;2022-07-05T03:56:31;7.78;;;4.45;;
28174;SDS011;59417;44.788;10.334;2022-07-05T03:59:01;8.00;;;4.65;;
28174;SDS011;59417;44.788;10.334;2022-07-05T04:01:29;8.77;;;4.60;;
28174;SDS011;59417;44.788;10.334;2022-07-05T04:03:55;7.25;;;4.78;;
28174;SDS011;59417;44.788;10.334;2022-07-05T04:06:24;7.82;;;4.30;;
28174;SDS011;59417;44.788;10.334;2022-07-05T04:08:53;6.35;;;4.40;;
28174;SDS011;59417;44.788;10.334;2022-07-05T04:11:19;8.32;;;4.68;;
28174;SDS011;59417;44.788;10.334;2022-07-05T04:13:48;10.32;;;5.05;;
28174;SDS011;59417;44.788;10.334;2022-07-05T04:16:15;7.65;;;4.63;;
28174;SDS011;59417;44.788;10.334;2022-07-05T04:18:41;6.70;;;4.07;;
28174;SDS011;59417;44.788;10.334;2022-07-05T04:21:07;10.50;;;4.50;;
28174;SDS011;59417;44.788;10.334;2022-07-05T04:23:34;4.93;;;3.47;;
28174;SDS011;59417;44.788;10.334;2022-07-05T04:26:01;6.35;;;3.70;;
28174;SDS011;59417;44.788;10.334;2022-07-05T04:28:36;7.78;;;4.38;;
28174;SDS011;59417;44.788;10.334;2022-07-05T04:33:36;7.88;;;3.53;;
28174;SDS011;59417;44.788;10.334;2022-07-05T04:36:03;8.48;;;4.00;;
28174;SDS011;59417;44.788;10.334;2022-07-05T04:38:29;5.18;;;3.47;;
28174;SDS011;59417;44.788;10.334;2022-07-05T04:40:57;7.40;;;4.10;;
28174;SDS011;59417;44.788;10.334;2022-07-05T04:43:24;5.03;;;3.65;;
28174;SDS011;59417;44.788;10.334;2022-07-05T04:45:49;6.43;;;3.67;;
28174;SDS011;59417;44.788;10.334;2022-07-05T04:48:16;6.97;;;3.33;;
28174;SDS011;59417;44.788;10.334;2022-07-05T04:50:41;8.73;;;3.72;;
28174;SDS011;59417;44.788;10.334;2022-07-05T04:53:07;5.05;;;3.67;;
28174;SDS011;59417;44.788;10.334;2022-07-05T04:55:33;8.35;;;4.57;;
28174;SDS011;59417;44.788;10.334;2022-07-05T04:57:58;9.75;;;4.75;;
28174;SDS011;59417;44.788;10.334;2022-07-05T05:00:24;10.60;;;4.60;;
28174;SDS011;59417;44.788;10.334;2022-07-05T05:02:50;8.65;;;4.18;;
28174;SDS011;59417;44.788;10.334;2022-07-05T05:05:15;6.85;;;4.10;;
28174;SDS011;59417;44.788;10.334;2022-07-05T05:07:42;10.70;;;4.50;;
28174;SDS011;59417;44.788;10.334;2022-07-05T05:10:08;10.23;;;4.28;;
28174;SDS011;59417;44.788;10.334;2022-07-05T05:12:34;10.52;;;4.65;;
28174;SDS011;59417;44.788;10.334;2022-07-05T05:15:00;6.10;;;3.35;;
28174;SDS011;59417;44.788;10.334;2022-07-05T05:17:25;12.50;;;3.75;;
28174;SDS011;59417;44.788;10.334;2022-07-05T05:20:06;5.90;;;2.92;;
28174;SDS011;59417;44.788;10.334;2022-07-05T05:22:36;5.03;;;2.90;;
28174;SDS011;59417;44.788;10.334;2022-07-05T05:25:02;6.97;;;2.78;;
28174;SDS011;59417;44.788;10.334;2022-07-05T05:27:28;3.20;;;2.60;;
28174;SDS011;59417;44.788;10.334;2022-07-05T05:29:55;5.03;;;2.47;;
28174;SDS011;59417;44.788;10.334;2022-07-05T05:32:21;6.85;;;2.83;;
28174;SDS011;59417;44.788;10.334;2022-07-05T05:34:49;6.95;;;3.42;;
28174;SDS011;59417;44.788;10.334;2022-07-05T05:37:14;7.57;;;3.15;;
28174;SDS011;59417;44.788;10.334;2022-07-05T05:39:40;12.18;;;3.33;;
28174;SDS011;59417;44.788;10.334;2022-07-05T05:42:06;9.20;;;3.15;;
28174;SDS011;59417;44.788;10.334;2022-07-05T05:44:32;6.93;;;2.80;;
28174;SDS011;59417;44.788;10.334;2022-07-05T05:46:57;7.32;;;3.05;;
28174;SDS011;59417;44.788;10.334;2022-07-05T05:49:23;5.28;;;3.03;;
28174;SDS011;59417;44.788;10.334;2022-07-05T05:51:49;5.35;;;3.30;;
28174;SDS011;59417;44.788;10.334;2022-07-05T05:54:14;5.28;;;3.47;;
28174;SDS011;59417;44.788;10.334;2022-07-05T05:56:40;6.28;;;3.30;;
28174;SDS011;59417;44.788;10.334;2022-07-05T05:59:06;5.90;;;3.03;;
28174;SDS011;59417;44.788;10.334;2022-07-05T06:01:31;7.20;;;3.45;;
28174;SDS011;59417;44.788;10.334;2022-07-05T06:03:57;9.07;;;3.88;;
28174;SDS011;59417;44.788;10.334;2022-07-05T06:06:23;9.93;;;3.67;;
28174;SDS011;59417;44.788;10.334;2022-07-05T06:08:48;5.32;;;3.80;;
28174;SDS011;59417;44.788;10.334;2022-07-05T06:11:14;5.63;;;3.63;;
28174;SDS011;59417;44.788;10.334;2022-07-05T06:13:40;8.93;;;3.78;;
28174;SDS011;59417;44.788;10.334;2022-07-05T06:16:06;11.85;;;3.88;;
28174;SDS011;59417;44.788;10.334;2022-07-05T06:18:32;7.93;;;3.90;;
28174;SDS011;59417;44.788;10.334;2022-07-05T06:20:58;13.77;;;4.40;;
28174;SDS011;59417;44.788;10.334;2022-07-05T06:23:23;7.82;;;3.95;;
28174;SDS011;59417;44.788;10.334;2022-07-05T06:25:49;13.52;;;4.05;;
28174;SDS011;59417;44.788;10.334;2022-07-05T06:28:15;11.05;;;4.22;;
28174;SDS011;59417;44.788;10.334;2022-07-05T06:30:41;5.53;;;3.50;;
28174;SDS011;59417;44.788;10.334;2022-07-05T06:33:07;5.75;;;3.55;;
28174;SDS011;59417;44.788;10.334;2022-07-05T06:35:34;5.07;;;3.38;;
28174;SDS011;59417;44.788;10.334;2022-07-05T06:38:03;5.28;;;3.47;;
28174;SDS011;59417;44.788;10.334;2022-07-05T06:40:32;8.50;;;3.90;;
28174;SDS011;59417;44.788;10.334;2022-07-05T06:43:00;5.50;;;3.83;;
28174;SDS011;59417;44.788;10.334;2022-07-05T06:45:43;8.60;;;4.50;;
28174;SDS011;59417;44.788;10.334;2022-07-05T06:48:09;7.22;;;4.55;;
28174;SDS011;59417;44.788;10.334;2022-07-05T06:50:36;7.13;;;4.55;;
28174;SDS011;59417;44.788;10.334;2022-07-05T06:53:04;10.95;;;5.88;;
28174;SDS011;59417;44.788;10.334;2022-07-05T06:55:30;10.02;;;6.40;;
28174;SDS011;59417;44.788;10.334;2022-07-05T06:58:04;8.63;;;6.20;;
28174;SDS011;59417;44.788;10.334;2022-07-05T07:00:30;13.82;;;6.38;;
28174;SDS011;59417;44.788;10.334;2022-07-05T07:02:59;10.37;;;5.77;;
28174;SDS011;59417;44.788;10.334;2022-07-05T07:05:25;10.75;;;6.65;;
28174;SDS011;59417;44.788;10.334;2022-07-05T07:07:52;7.72;;;5.68;;
28174;SDS011;59417;44.788;10.334;2022-07-05T07:10:36;7.00;;;4.82;;
28174;SDS011;59417;44.788;10.334;2022-07-05T07:13:02;10.88;;;5.10;;
28174;SDS011;59417;44.788;10.334;2022-07-05T07:15:28;8.45;;;4.70;;
28174;SDS011;59417;44.788;10.334;2022-07-05T07:17:54;7.22;;;4.57;;
28174;SDS011;59417;44.788;10.334;2022-07-05T07:20:20;7.45;;;4.55;;
28174;SDS011;59417;44.788;10.334;2022-07-05T07:22:46;10.05;;;4.88;;
28174;SDS011;59417;44.788;10.334;2022-07-05T07:25:12;8.65;;;4.68;;
28174;SDS011;59417;44.788;10.334;2022-07-05T07:27:42;10.45;;;4.50;;
28174;SDS011;59417;44.788;10.334;2022-07-05T07:30:10;7.72;;;4.70;;
28174;SDS011;59417;44.788;10.334;2022-07-05T07:32:37;9.02;;;4.20;;
28174;SDS011;59417;44.788;10.334;2022-07-05T07:35:02;5.90;;;4.18;;
28174;SDS011;59417;44.788;10.334;2022-07-05T07:37:29;7.35;;;4.82;;
28174;SDS011;59417;44.788;10.334;2022-07-05T07:39:54;7.45;;;4.50;;
28174;SDS011;59417;44.788;10.334;2022-07-05T07:42:20;7.22;;;3.78;;
28174;SDS011;59417;44.788;10.334;2022-07-05T07:44:46;6.88;;;4.38;;
28174;SDS011;59417;44.788;10.334;2022-07-05T07:47:11;9.02;;;4.10;;
28174;SDS011;59417;44.788;10.334;2022-07-05T07:49:37;9.35;;;4.95;;
28174;SDS011;59417;44.788;10.334;2022-07-05T07:52:03;5.50;;;4.05;;
28174;SDS011;59417;44.788;10.334;2022-07-05T07:54:29;10.95;;;4.68;;
28174;SDS011;59417;44.788;10.334;2022-07-05T07:56:55;15.40;;;4.65;;
28174;SDS011;59417;44.788;10.334;2022-07-05T07:59:20;6.45;;;4.72;;
28174;SDS011;59417;44.788;10.334;2022-07-05T08:01:46;6.18;;;4.40;;
28174;SDS011;59417;44.788;10.334;2022-07-05T08:04:12;8.05;;;4.47;;
28174;SDS011;59417;44.788;10.334;2022-07-05T08:06:39;5.80;;;4.53;;
28174;SDS011;59417;44.788;10.334;2022-07-05T08:09:04;8.27;;;4.38;;
28174;SDS011;59417;44.788;10.334;2022-07-05T08:11:30;5.88;;;4.40;;
28174;SDS011;59417;44.788;10.334;2022-07-05T08:13:56;6.55;;;4.35;;
28174;SDS011;59417;44.788;10.334;2022-07-05T08:16:22;7.25;;;4.57;;
28174;SDS011;59417;44.788;10.334;2022-07-05T08:18:47;6.15;;;4.22;;
28174;SDS011;59417;44.788;10.334;2022-07-05T08:21:32;6.13;;;3.95;;
28174;SDS011;59417;44.788;10.334;2022-07-05T08:24:10;6.97;;;4.03;;
28174;SDS011;59417;44.788;10.334;2022-07-05T08:26:37;5.18;;;3.95;;
28174;SDS011;59417;44.788;10.334;2022-07-05T08:29:05;7.03;;;4.45;;
28174;SDS011;59417;44.788;10.334;2022-07-05T08:31:34;7.55;;;4.53;;
28174;SDS011;59417;44.788;10.334;2022-07-05T08:34:02;9.93;;;4.37;;
28174;SDS011;59417;44.788;10.334;2022-07-05T08:36:28;6.03;;;4.03;;
28174;SDS011;59417;44.788;10.334;2022-07-05T08:38:54;5.25;;;4.00;;
28174;SDS011;59417;44.788;10.334;2022-07-05T08:41:20;6.10;;;3.95;;
28174;SDS011;59417;44.788;10.334;2022-07-05T08:43:47;11.80;;;4.85;;
28174;SDS011;59417;44.788;10.334;2022-07-05T08:46:14;7.63;;;3.78;;
28174;SDS011;59417;44.788;10.334;2022-07-05T08:48:42;6.25;;;4.25;;
28174;SDS011;59417;44.788;10.334;2022-07-05T08:51:19;8.68;;;4.60;;
28174;SDS011;59417;44.788;10.334;2022-07-05T08:53:49;5.95;;;4.82;;
28174;SDS011;59417;44.788;10.334;2022-07-05T08:56:16;7.85;;;4.60;;
28174;SDS011;59417;44.788;10.334;2022-07-05T08:58:42;10.52;;;4.28;;
28174;SDS011;59417;44.788;10.334;2022-07-05T09:01:09;8.93;;;5.20;;
28174;SDS011;59417;44.788;10.334;2022-07-05T09:03:39;11.80;;;4.88;;
28174;SDS011;59417;44.788;10.334;2022-07-05T09:06:10;8.55;;;4.20;;
28174;SDS011;59417;44.788;10.334;2022-07-05T09:08:38;12.25;;;5.05;;
28174;SDS011;59417;44.788;10.334;2022-07-05T09:11:09;6.68;;;4.45;;
28174;SDS011;59417;44.788;10.334;2022-07-05T09:13:40;8.88;;;4.05;;
28174;SDS011;59417;44.788;10.334;2022-07-05T09:16:08;15.53;;;5.37;;
28174;SDS011;59417;44.788;10.334;2022-07-05T09:23:45;7.45;;;5.50;;
28174;SDS011;59417;44.788;10.334;2022-07-05T09:26:43;9.25;;;5.60;;
28174;SDS011;59417;44.788;10.334;2022-07-05T09:29:14;8.50;;;5.00;;
28174;SDS011;59417;44.788;10.334;2022-07-05T09:31:43;7.73;;;5.03;;
28174;SDS011;59417;44.788;10.334;2022-07-05T09:34:11;8.55;;;5.65;;
28174;SDS011;59417;44.788;10.334;2022-07-05T09:39:13;7.38;;;6.50;;
28174;SDS011;59417;44.788;10.334;2022-07-05T09:41:39;14.18;;;7.28;;
28174;SDS011;59417;44.788;10.334;2022-07-05T09:44:04;8.52;;;6.05;;
28174;SDS011;59417;44.788;10.334;2022-07-05T09:46:30;8.68;;;7.43;;
28174;SDS011;59417;44.788;10.334;2022-07-05T09:48:57;7.13;;;5.63;;
28174;SDS011;59417;44.788;10.334;2022-07-05T09:51:23;8.80;;;5.97;;
28174;SDS011;59417;44.788;10.334;2022-07-05T09:53:52;8.95;;;5.45;;
28174;SDS011;59417;44.788;10.334;2022-07-05T09:56:20;13.23;;;7.13;;
28174;SDS011;59417;44.788;10.334;2022-07-05T09:58:46;7.32;;;5.28;;
28174;SDS011;59417;44.788;10.334;2022-07-05T10:01:28;8.95;;;5.07;;
28174;SDS011;59417;44.788;10.334;2022-07-05T10:03:56;9.02;;;5.00;;
28174;SDS011;59417;44.788;10.334;2022-07-05T10:06:24;6.20;;;5.28;;
28174;SDS011;59417;44.788;10.334;2022-07-05T10:08:53;7.40;;;5.43;;
28174;SDS011;59417;44.788;10.334;2022-07-05T10:11:19;7.95;;;5.10;;
28174;SDS011;59417;44.788;10.334;2022-07-05T10:13:52;5.97;;;5.13;;
28174;SDS011;59417;44.788;10.334;2022-07-05T10:16:19;5.82;;;4.90;;
28174;SDS011;59417;44.788;10.334;2022-07-05T10:18:47;13.30;;;5.25;;
28174;SDS011;59417;44.788;10.334;2022-07-05T10:21:17;6.78;;;5.45;;
28174;SDS011;59417;44.788;10.334;2022-07-05T10:23:44;9.75;;;7.22;;
28174;SDS011;59417;44.788;10.334;2022-07-05T10:26:11;10.07;;;5.80;;
28174;SDS011;59417;44.788;10.334;2022-07-05T10:28:39;11.35;;;6.22;;
28174;SDS011;59417;44.788;10.334;2022-07-05T10:31:08;8.80;;;5.95;;
28174;SDS011;59417;44.788;10.334;2022-07-05T10:33:34;5.93;;;4.97;;
28174;SDS011;59417;44.788;10.334;2022-07-05T10:36:01;7.25;;;4.72;;
28174;SDS011;59417;44.788;10.334;2022-07-05T10:38:27;8.32;;;5.20;;
28174;SDS011;59417;44.788;10.334;2022-07-05T10:40:54;9.30;;;5.70;;
28174;SDS011;59417;44.788;10.334;2022-07-05T10:43:23;7.55;;;4.95;;
28174;SDS011;59417;44.788;10.334;2022-07-05T10:45:50;6.00;;;4.90;;
28174;SDS011;59417;44.788;10.334;2022-07-05T10:48:23;9.82;;;5.97;;
28174;SDS011;59417;44.788;10.334;2022-07-05T10:50:54;5.55;;;4.60;;
28174;SDS011;59417;44.788;10.334;2022-07-05T10:56:11;9.65;;;4.95;;
28174;SDS011;59417;44.788;10.334;2022-07-05T10:58:37;8.90;;;5.28;;
28174;SDS011;59417;44.788;10.334;2022-07-05T11:03:45;8.02;;;4.65;;
28174;SDS011;59417;44.788;10.334;2022-07-05T11:06:24;5.45;;;4.68;;
28174;SDS011;59417;44.788;10.334;2022-07-05T11:11:24;5.30;;;4.55;;
28174;SDS011;59417;44.788;10.334;2022-07-05T11:13:51;8.85;;;4.25;;
28174;SDS011;59417;44.788;10.334;2022-07-05T11:16:25;4.90;;;4.22;;
28174;SDS011;59417;44.788;10.334;2022-07-05T11:19:09;8.77;;;5.00;;
28174;SDS011;59417;44.788;10.334;2022-07-05T11:22:17;9.15;;;5.10;;
28174;SDS011;59417;44.788;10.334;2022-07-05T11:24:36;6.13;;;4.50;;
28174;SDS011;59417;44.788;10.334;2022-07-05T11:27:08;8.90;;;4.90;;
28174;SDS011;59417;44.788;10.334;2022-07-05T11:32:08;7.45;;;4.82;;
28174;SDS011;59417;44.788;10.334;2022-07-05T11:34:35;5.30;;;4.22;;
28174;SDS011;59417;44.788;10.334;2022-07-05T11:42:36;4.25;;;3.83;;
28174;SDS011;59417;44.788;10.334;2022-07-05T11:45:08;7.45;;;4.13;;
28174;SDS011;59417;44.788;10.334;2022-07-05T11:47:34;4.32;;;3.63;;
28174;SDS011;59417;44.788;10.334;2022-07-05T11:50:00;5.88;;;3.58;;
28174;SDS011;59417;44.788;10.334;2022-07-05T11:52:26;8.23;;;3.72;;
28174;SDS011;59417;44.788;10.334;2022-07-05T11:54:53;6.32;;;3.88;;
28174;SDS011;59417;44.788;10.334;2022-07-05T11:57:19;5.72;;;4.05;;
28174;SDS011;59417;44.788;10.334;2022-07-05T11:59:46;3.70;;;3.15;;
28174;SDS011;59417;44.788;10.334;2022-07-05T12:02:12;9.95;;;4.07;;
28174;SDS011;59417;44.788;10.334;2022-07-05T12:04:38;4.43;;;3.90;;
28174;SDS011;59417;44.788;10.334;2022-07-05T12:07:04;5.55;;;3.58;;
28174;SDS011;59417;44.788;10.334;2022-07-05T12:09:31;7.45;;;3.08;;
28174;SDS011;59417;44.788;10.334;2022-07-05T12:12:17;10.27;;;3.50;;
28174;SDS011;59417;44.788;10.334;2022-07-05T12:15:05;5.38;;;3.58;;
28174;SDS011;59417;44.788;10.334;2022-07-05T12:17:33;5.50;;;3.35;;
28174;SDS011;59417;44.788;10.334;2022-07-05T12:19:59;7.03;;;4.55;;
28174;SDS011;59417;44.788;10.334;2022-07-05T12:22:28;6.63;;;4.88;;
28174;SDS011;59417;44.788;10.334;2022-07-05T12:24:58;10.05;;;5.68;;
28174;SDS011;59417;44.788;10.334;2022-07-05T12:27:26;9.07;;;5.25;;
28174;SDS011;59417;44.788;10.334;2022-07-05T12:29:53;8.85;;;4.72;;
28174;SDS011;59417;44.788;10.334;2022-07-05T12:32:19;5.72;;;4.30;;
28174;SDS011;59417;44.788;10.334;2022-07-05T12:34:45;8.60;;;3.70;;
28174;SDS011;59417;44.788;10.334;2022-07-05T12:37:10;6.32;;;4.30;;
28174;SDS011;59417;44.788;10.334;2022-07-05T12:39:46;6.10;;;4.03;;
28174;SDS011;59417;44.788;10.334;2022-07-05T12:42:28;4.55;;;3.30;;
28174;SDS011;59417;44.788;10.334;2022-07-05T12:45:13;9.07;;;3.70;;
28174;SDS011;59417;44.788;10.334;2022-07-05T12:47:51;4.13;;;3.72;;
28174;SDS011;59417;44.788;10.334;2022-07-05T12:52:59;6.40;;;3.35;;
28174;SDS011;59417;44.788;10.334;2022-07-05T12:56:00;6.40;;;3.78;;
28174;SDS011;59417;44.788;10.334;2022-07-05T12:58:49;4.38;;;3.30;;
28174;SDS011;59417;44.788;10.334;2022-07-05T13:06:42;4.82;;;3.58;;
28174;SDS011;59417;44.788;10.334;2022-07-05T13:09:09;4.60;;;2.90;;
28174;SDS011;59417;44.788;10.334;2022-07-05T13:11:35;4.57;;;3.00;;
28174;SDS011;59417;44.788;10.334;2022-07-05T13:14:01;3.25;;;2.95;;
28174;SDS011;59417;44.788;10.334;2022-07-05T13:16:26;5.15;;;3.42;;
28174;SDS011;59417;44.788;10.334;2022-07-05T13:18:52;6.97;;;3.58;;
28174;SDS011;59417;44.788;10.334;2022-07-05T13:21:18;4.32;;;2.67;;
28174;SDS011;59417;44.788;10.334;2022-07-05T13:23:43;4.13;;;2.67;;
28174;SDS011;59417;44.788;10.334;2022-07-05T13:26:09;5.43;;;2.72;;
28174;SDS011;59417;44.788;10.334;2022-07-05T13:28:35;8.80;;;3.22;;
28174;SDS011;59417;44.788;10.334;2022-07-05T13:31:00;3.63;;;3.05;;
28174;SDS011;59417;44.788;10.334;2022-07-05T13:33:26;7.78;;;3.78;;
28174;SDS011;59417;44.788;10.334;2022-07-05T13:35:52;3.88;;;2.83;;
28174;SDS011;59417;44.788;10.334;2022-07-05T13:38:17;4.00;;;3.33;;
28174;SDS011;59417;44.788;10.334;2022-07-05T13:40:43;6.00;;;3.92;;
28174;SDS011;59417;44.788;10.334;2022-07-05T13:43:09;4.50;;;3.28;;
28174;SDS011;59417;44.788;10.334;2022-07-05T13:45:34;6.35;;;3.53;;
28174;SDS011;59417;44.788;10.334;2022-07-05T13:48:00;8.18;;;3.38;;
28174;SDS011;59417;44.788;10.334;2022-07-05T13:50:26;6.28;;;3.40;;
28174;SDS011;59417;44.788;10.334;2022-07-05T13:53:01;3.15;;;2.85;;
28174;SDS011;59417;44.788;10.334;2022-07-05T13:55:27;4.65;;;3.53;;
28174;SDS011;59417;44.788;10.334;2022-07-05T13:57:53;2.85;;;2.65;;
28174;SDS011;59417;44.788;10.334;2022-07-05T14:00:19;5.35;;;3.28;;
28174;SDS011;59417;44.788;10.334;2022-07-05T14:02:45;6.45;;;3.53;;
28174;SDS011;59417;44.788;10.334;2022-07-05T14:05:11;8.43;;;4.07;;
28174;SDS011;59417;44.788;10.334;2022-07-05T14:07:37;4.28;;;3.35;;
28174;SDS011;59417;44.788;10.334;2022-07-05T14:10:03;4.10;;;3.33;;
28174;SDS011;59417;44.788;10.334;2022-07-05T14:12:30;10.55;;;4.00;;
28174;SDS011;59417;44.788;10.334;2022-07-05T14:14:56;5.38;;;3.45;;
28174;SDS011;59417;44.788;10.334;2022-07-05T14:17:22;3.80;;;3.40;;
28174;SDS011;59417;44.788;10.334;2022-07-05T14:19:47;5.97;;;3.35;;
28174;SDS011;59417;44.788;10.334;2022-07-05T14:22:13;6.88;;;3.63;;
28174;SDS011;59417;44.788;10.334;2022-07-05T14:24:38;5.15;;;3.58;;
28174;SDS011;59417;44.788;10.334;2022-07-05T14:27:04;5.90;;;2.92;;
28174;SDS011;59417;44.788;10.334;2022-07-05T14:29:32;4.97;;;2.90;;
28174;SDS011;59417;44.788;10.334;2022-07-05T14:31:58;4.03;;;3.30;;
28174;SDS011;59417;44.788;10.334;2022-07-05T14:34:24;4.68;;;2.92;;
28174;SDS011;59417;44.788;10.334;2022-07-05T14:36:49;5.68;;;3.40;;
28174;SDS011;59417;44.788;10.334;2022-07-05T14:39:15;4.95;;;3.47;;
28174;SDS011;59417;44.788;10.334;2022-07-05T14:41:41;4.68;;;3.42;;
28174;SDS011;59417;44.788;10.334;2022-07-05T14:44:08;6.65;;;3.60;;
28174;SDS011;59417;44.788;10.334;2022-07-05T14:46:34;4.95;;;3.55;;
28174;SDS011;59417;44.788;10.334;2022-07-05T14:48:59;5.03;;;3.72;;
28174;SDS011;59417;44.788;10.334;2022-07-05T14:51:25;4.72;;;3.97;;
28174;SDS011;59417;44.788;10.334;2022-07-05T14:53:51;4.53;;;3.75;;
28174;SDS011;59417;44.788;10.334;2022-07-05T14:56:16;4.38;;;3.40;;
28174;SDS011;59417;44.788;10.334;2022-07-05T14:58:43;4.55;;;3.88;;
28174;SDS011;59417;44.788;10.334;2022-07-05T15:01:09;4.30;;;3.53;;
28174;SDS011;59417;44.788;10.334;2022-07-05T15:03:34;6.90;;;4.07;;
28174;SDS011;59417;44.788;10.334;2022-07-05T15:06:00;6.55;;;3.28;;
28174;SDS011;59417;44.788;10.334;2022-07-05T15:08:28;6.90;;;3.78;;